createdAt,value
2023-04-24T00:00:49.759Z,0.70
2023-04-24T00:03:18.014Z,0.90
2023-04-24T00:05:46.666Z,0.80
2023-04-24T00:08:14.422Z,0.80
2023-04-24T00:10:43.682Z,0.90
2023-04-24T00:13:11.588Z,0.77
2023-04-24T00:15:39.389Z,0.70
2023-04-24T00:18:07.403Z,0.60
2023-04-24T00:20:36.388Z,0.57
2023-04-24T00:23:04.509Z,0.70
2023-04-24T00:25:32.261Z,0.80
2023-04-24T00:28:01.306Z,0.80
2023-04-24T00:30:29.737Z,0.90
2023-04-24T00:32:57.604Z,0.80
2023-04-24T00:35:25.746Z,0.80
2023-04-24T00:37:53.506Z,0.83
2023-04-24T00:40:21.445Z,1.10
2023-04-24T00:42:49.655Z,1.03
2023-04-24T00:45:19.227Z,0.80
2023-04-24T00:47:47.630Z,0.90
2023-04-24T00:50:17.426Z,0.90
2023-04-24T00:52:45.280Z,0.60
2023-04-24T00:55:13.120Z,0.80
2023-04-24T00:57:41.320Z,0.70
2023-04-24T01:00:12.769Z,0.90
2023-04-24T01:02:45.060Z,1.00
2023-04-24T01:05:14.161Z,0.90
2023-04-24T01:07:45.027Z,1.00
2023-04-24T01:10:14.807Z,0.97
2023-04-24T01:12:42.876Z,0.90
2023-04-24T01:15:11.979Z,1.00
2023-04-24T01:17:40.298Z,1.00
2023-04-24T01:20:10.604Z,1.00
2023-04-24T01:22:39.705Z,1.00
2023-04-24T01:25:08.079Z,1.30
2023-04-24T01:27:35.865Z,1.17
2023-04-24T01:30:08.079Z,1.60
2023-04-24T01:32:36.558Z,1.50
2023-04-24T01:35:05.438Z,1.50
2023-04-24T01:37:34.159Z,1.27
2023-04-24T01:40:04.469Z,1.57
2023-04-24T01:42:32.481Z,1.90
2023-04-24T01:45:01.111Z,1.80
2023-04-24T01:47:29.230Z,2.15
2023-04-24T01:49:58.609Z,2.17
2023-04-24T01:52:26.524Z,1.90
2023-04-24T01:54:56.786Z,2.13
2023-04-24T01:57:26.025Z,2.17
2023-04-24T01:59:53.960Z,2.50
2023-04-24T02:02:22.421Z,2.63
2023-04-24T02:04:50.326Z,2.73
2023-04-24T02:07:18.632Z,2.43
2023-04-24T02:09:46.354Z,2.60
2023-04-24T02:12:14.257Z,2.45
2023-04-24T02:14:43.763Z,3.07
2023-04-24T02:17:14.276Z,3.50
2023-04-24T02:19:42.220Z,4.00
2023-04-24T02:22:11.635Z,3.90
2023-04-24T02:24:39.647Z,3.70
2023-04-24T02:27:08.409Z,4.40
2023-04-24T02:29:36.813Z,4.07
2023-04-24T02:32:06.100Z,3.90
2023-04-24T02:34:34.838Z,3.97
2023-04-24T02:37:02.553Z,4.17
2023-04-24T02:39:30.304Z,4.77
2023-04-24T02:41:58.009Z,4.60
2023-04-24T02:44:25.745Z,4.60
2023-04-24T02:46:56.591Z,4.63
2023-04-24T02:49:27.020Z,5.00
2023-04-24T02:51:55.494Z,4.33
2023-04-24T02:54:23.261Z,4.80
2023-04-24T02:56:51.358Z,4.80
2023-04-24T02:59:19.105Z,4.63
2023-04-24T03:01:46.942Z,4.80
2023-04-24T03:04:15.051Z,3.83
2023-04-24T03:06:44.237Z,4.47
2023-04-24T03:09:11.990Z,5.20
2023-04-24T03:11:39.722Z,4.97
2023-04-24T03:14:09.736Z,5.27
2023-04-24T03:16:39.328Z,4.83
2023-04-24T03:19:08.410Z,5.00
2023-04-24T03:21:45.059Z,4.83
2023-04-24T03:24:12.941Z,5.50
2023-04-24T03:26:41.299Z,5.97
2023-04-24T03:29:20.291Z,5.03
2023-04-24T03:31:48.691Z,4.90
2023-04-24T03:34:16.553Z,5.50
2023-04-24T03:36:48.485Z,5.37
2023-04-24T03:39:16.417Z,5.40
2023-04-24T03:41:51.564Z,5.73
2023-04-24T03:44:24.424Z,5.57
2023-04-24T03:46:52.686Z,5.47
2023-04-24T03:49:22.987Z,5.47
2023-04-24T03:51:53.279Z,5.90
2023-04-24T03:54:24.634Z,6.03
2023-04-24T03:56:53.981Z,5.73
2023-04-24T03:59:22.247Z,5.67
2023-04-24T04:02:01.288Z,6.10
2023-04-24T04:04:29.317Z,5.33
2023-04-24T04:07:02.051Z,5.33
2023-04-24T04:09:29.765Z,5.37
2023-04-24T04:11:57.606Z,5.30
2023-04-24T04:14:25.478Z,5.23
2023-04-24T04:16:54.948Z,5.73
2023-04-24T04:19:23.084Z,5.20
2023-04-24T04:21:54.088Z,5.50
2023-04-24T04:24:31.105Z,5.13
2023-04-24T04:27:01.478Z,5.07
2023-04-24T04:29:33.696Z,5.43
2023-04-24T04:32:03.570Z,5.67
2023-04-24T04:34:32.386Z,6.20
2023-04-24T04:37:02.742Z,4.67
2023-04-24T04:39:43.017Z,5.13
2023-04-24T04:42:14.880Z,5.30
2023-04-24T04:44:45.839Z,5.27
2023-04-24T04:47:19.298Z,4.60
2023-04-24T04:49:47.594Z,5.03
2023-04-24T04:52:21.296Z,4.97
2023-04-24T04:54:55.216Z,5.10
2023-04-24T04:57:27.063Z,4.70
2023-04-24T04:59:55.109Z,4.60
2023-04-24T05:02:36.857Z,4.63
2023-04-24T05:05:05.285Z,4.77
2023-04-24T05:07:33.210Z,5.03
2023-04-24T05:10:02.598Z,5.17
2023-04-24T05:12:31.432Z,4.73
2023-04-24T05:14:59.871Z,5.43
2023-04-24T05:17:28.400Z,4.80
2023-04-24T05:19:57.712Z,4.70
2023-04-24T05:22:26.245Z,4.57
2023-04-24T05:24:54.293Z,4.90
2023-04-24T05:27:39.248Z,4.90
2023-04-24T05:30:13.903Z,4.20
2023-04-24T05:32:41.890Z,4.80
2023-04-24T05:35:10.519Z,4.60
2023-04-24T05:37:38.374Z,5.10
2023-04-24T05:40:07.905Z,5.60
2023-04-24T05:42:35.610Z,5.03
2023-04-24T05:45:05.516Z,4.13
2023-04-24T05:47:33.283Z,4.50
2023-04-24T05:50:01.478Z,4.03
2023-04-24T05:52:30.089Z,4.57
2023-04-24T05:54:58.175Z,5.00
2023-04-24T05:57:29.595Z,4.83
2023-04-24T06:00:06.512Z,4.70
2023-04-24T06:02:41.315Z,4.43
2023-04-24T06:05:12.791Z,4.13
2023-04-24T06:07:41.407Z,4.37
2023-04-24T06:10:11.042Z,4.60
2023-04-24T06:12:43.079Z,3.70
2023-04-24T06:15:18.353Z,4.60
2023-04-24T06:17:59.782Z,3.80
2023-04-24T06:20:28.087Z,2.97
2023-04-24T06:22:56.016Z,3.17
2023-04-24T06:25:23.940Z,3.33
2023-04-24T06:27:52.363Z,4.10
2023-04-24T06:30:21.521Z,3.50
2023-04-24T06:32:49.315Z,3.50
2023-04-24T06:35:17.333Z,3.20
2023-04-24T06:37:45.581Z,3.07
2023-04-24T06:40:13.597Z,2.27
2023-04-24T06:42:41.502Z,2.00
2023-04-24T06:45:10.917Z,1.50
2023-04-24T06:47:40.083Z,1.80
2023-04-24T06:50:08.900Z,1.93
2023-04-24T06:52:36.670Z,1.70
2023-04-24T06:55:05.240Z,1.73
2023-04-24T06:57:33.449Z,1.80
2023-04-24T07:00:01.181Z,2.00
2023-04-24T07:02:29.075Z,2.20
2023-04-24T07:04:58.509Z,1.73
2023-04-24T07:07:26.364Z,1.70
2023-04-24T07:09:55.176Z,2.00
2023-04-24T07:12:22.946Z,1.90
2023-04-24T07:14:50.714Z,1.70
2023-04-24T07:17:18.541Z,2.30
2023-04-24T07:19:46.449Z,2.03
2023-04-24T07:22:17.929Z,2.00
2023-04-24T07:24:45.800Z,2.13
2023-04-24T07:27:15.701Z,2.20
2023-04-24T07:29:43.876Z,2.30
2023-04-24T07:32:11.970Z,2.63
2023-04-24T07:34:39.676Z,2.60
2023-04-24T07:37:07.600Z,3.03
2023-04-24T07:39:36.763Z,3.10
2023-04-24T07:42:05.269Z,2.60
2023-04-24T07:44:33.258Z,1.93
2023-04-24T07:47:01.157Z,2.03
2023-04-24T07:49:29.403Z,1.90
2023-04-24T07:51:57.156Z,2.10
2023-04-24T07:54:24.877Z,2.10
2023-04-24T07:56:53.970Z,1.73
2023-04-24T07:59:21.860Z,1.70
2023-04-24T08:01:49.642Z,1.83
2023-04-24T08:04:18.941Z,2.20
2023-04-24T08:06:46.795Z,1.90
2023-04-24T08:09:14.510Z,2.10
2023-04-24T08:11:42.342Z,2.00
2023-04-24T08:14:13.434Z,2.50
2023-04-24T08:16:41.441Z,1.97
2023-04-24T08:19:09.188Z,2.13
2023-04-24T08:21:36.927Z,2.07
2023-04-24T08:24:08.623Z,1.83
2023-04-24T08:26:36.535Z,1.87
2023-04-24T08:29:04.370Z,2.20
2023-04-24T08:31:33.511Z,2.40
2023-04-24T08:34:01.915Z,2.00
2023-04-24T08:36:43.378Z,1.90
2023-04-24T08:39:14.086Z,2.00
2023-04-24T08:41:44.183Z,2.40
2023-04-24T08:44:13.715Z,2.07
2023-04-24T08:46:44.587Z,1.97
2023-04-24T08:49:12.865Z,2.20
2023-04-24T08:51:41.931Z,2.00
2023-04-24T08:54:10.475Z,2.30
2023-04-24T08:56:41.180Z,2.67
2023-04-24T08:59:09.953Z,3.13
2023-04-24T09:01:40.656Z,3.50
2023-04-24T09:04:12.330Z,3.63
2023-04-24T09:06:40.927Z,4.00
2023-04-24T09:09:10.347Z,4.53
2023-04-24T09:11:39.281Z,4.13
2023-04-24T09:14:08.745Z,4.20
2023-04-24T09:16:36.923Z,4.23
2023-04-24T09:19:04.979Z,4.43
2023-04-24T09:21:36.181Z,4.17
2023-04-24T09:24:06.157Z,4.17
2023-04-24T09:26:34.586Z,4.53
2023-04-24T09:29:02.733Z,4.80
2023-04-24T09:31:31.621Z,5.03
2023-04-24T09:34:02.206Z,5.03
2023-04-24T09:36:34.018Z,4.80
2023-04-24T09:39:03.914Z,5.97
2023-04-24T09:41:31.748Z,6.03
2023-04-24T09:44:12.544Z,5.90
2023-04-24T09:46:40.563Z,4.77
2023-04-24T09:49:14.581Z,5.17
2023-04-24T09:51:42.547Z,5.07
2023-04-24T09:54:19.345Z,5.23
2023-04-24T09:56:48.610Z,5.20
2023-04-24T09:59:17.526Z,6.27
2023-04-24T10:01:46.036Z,6.33
2023-04-24T10:04:19.250Z,6.90
2023-04-24T10:06:49.714Z,7.23
2023-04-24T10:09:19.928Z,7.43
2023-04-24T10:11:49.336Z,6.97
2023-04-24T10:14:18.799Z,7.67
2023-04-24T10:16:47.964Z,7.10
2023-04-24T10:19:16.905Z,7.53
2023-04-24T10:21:47.546Z,6.97
2023-04-24T10:24:16.647Z,6.50
2023-04-24T10:26:49.192Z,6.97
2023-04-24T10:29:19.876Z,5.83
2023-04-24T10:31:48.337Z,5.93
2023-04-24T10:34:18.536Z,6.83
2023-04-24T10:36:54.294Z,5.90
2023-04-24T10:39:27.720Z,6.23
2023-04-24T10:41:58.425Z,5.57
2023-04-24T10:44:27.771Z,6.00
2023-04-24T10:46:57.591Z,5.43
2023-04-24T10:49:30.823Z,4.70
2023-04-24T10:52:02.986Z,5.57
2023-04-24T10:54:32.117Z,5.83
2023-04-24T10:57:31.759Z,4.80
2023-04-24T11:00:21.758Z,4.23
2023-04-24T11:02:54.106Z,4.00
2023-04-24T11:05:22.899Z,3.60
2023-04-24T11:08:12.794Z,4.17
2023-04-24T11:10:46.607Z,4.07
2023-04-24T11:13:18.590Z,3.80
2023-04-24T11:15:46.509Z,3.70
2023-04-24T11:18:17.827Z,3.73
2023-04-24T11:20:46.496Z,3.03
2023-04-24T11:23:15.909Z,4.47
2023-04-24T11:25:43.981Z,3.40
2023-04-24T11:28:18.402Z,3.93
2023-04-24T11:30:46.212Z,4.37
2023-04-24T11:33:21.743Z,3.80
2023-04-24T11:35:49.684Z,4.10
2023-04-24T11:38:24.716Z,3.87
2023-04-24T11:40:53.991Z,3.60
2023-04-24T11:43:23.607Z,4.40
2023-04-24T11:45:51.763Z,4.40
2023-04-24T11:48:22.608Z,5.13
2023-04-24T11:50:51.441Z,5.00
2023-04-24T11:53:21.512Z,4.70
2023-04-24T11:55:49.328Z,4.80
2023-04-24T11:58:17.074Z,4.63
2023-04-24T12:00:46.633Z,5.40
2023-04-24T12:03:14.881Z,4.40
2023-04-24T12:05:43.203Z,4.77
2023-04-24T12:08:11.304Z,4.27
2023-04-24T12:10:39.009Z,4.97
2023-04-24T12:13:06.730Z,4.60
2023-04-24T12:15:34.619Z,5.13
2023-04-24T12:18:03.934Z,3.90
2023-04-24T12:20:33.075Z,4.80
2023-04-24T12:23:02.620Z,4.90
2023-04-24T12:25:31.537Z,3.97
2023-04-24T12:28:12.654Z,3.83
2023-04-24T12:30:45.333Z,3.27
2023-04-24T12:33:19.857Z,3.60
2023-04-24T12:35:47.948Z,3.80
2023-04-24T12:38:18.851Z,3.40
2023-04-24T12:40:46.776Z,3.73
2023-04-24T12:43:18.105Z,3.57
2023-04-24T12:45:46.286Z,3.77
2023-04-24T12:48:15.223Z,3.20
2023-04-24T12:50:46.057Z,3.90
2023-04-24T12:53:14.468Z,4.07
2023-04-24T12:55:42.264Z,3.97
2023-04-24T12:58:10.233Z,3.50
2023-04-24T13:00:38.288Z,3.70
2023-04-24T13:03:07.329Z,4.30
2023-04-24T13:05:35.202Z,4.07
2023-04-24T13:08:04.337Z,3.63
2023-04-24T13:10:32.400Z,3.60
2023-04-24T13:13:00.166Z,3.30
2023-04-24T13:15:27.900Z,3.57
2023-04-24T13:17:55.660Z,3.60
2023-04-24T13:20:23.507Z,3.63
2023-04-24T13:22:51.260Z,3.73
2023-04-24T13:25:21.421Z,3.10
2023-04-24T13:27:49.160Z,3.60
2023-04-24T13:30:17.210Z,2.93
2023-04-24T13:32:45.052Z,2.70
2023-04-24T13:35:12.998Z,3.10
2023-04-24T13:37:40.760Z,3.40
2023-04-24T13:40:09.916Z,2.70
2023-04-24T13:42:39.150Z,3.00
2023-04-24T13:45:21.252Z,3.30
2023-04-24T13:47:53.391Z,3.33
2023-04-24T13:50:21.526Z,3.87
2023-04-24T13:52:49.322Z,2.97
2023-04-24T13:55:17.394Z,2.90
2023-04-24T13:57:46.467Z,2.87
2023-04-24T14:00:16.086Z,2.80
2023-04-24T14:02:43.989Z,3.03
2023-04-24T14:05:12.953Z,3.00
2023-04-24T14:07:40.713Z,2.73
2023-04-24T14:10:09.580Z,3.33
2023-04-24T14:12:37.466Z,2.70
2023-04-24T14:15:08.008Z,2.80
2023-04-24T14:17:35.854Z,3.07
2023-04-24T14:20:05.306Z,3.33
2023-04-24T14:22:33.165Z,3.70
2023-04-24T14:25:00.969Z,3.20
2023-04-24T14:27:28.814Z,4.57
2023-04-24T14:29:58.085Z,3.30
2023-04-24T14:32:29.700Z,3.60
2023-04-24T14:34:57.857Z,3.63
2023-04-24T14:37:25.666Z,3.40
2023-04-24T14:40:11.011Z,3.50
2023-04-24T14:42:41.679Z,3.10
2023-04-24T14:45:10.461Z,2.90
2023-04-24T14:47:43.040Z,3.07
2023-04-24T14:50:13.423Z,2.93
2023-04-24T14:52:41.284Z,2.90
2023-04-24T14:55:09.994Z,2.90
2023-04-24T14:57:38.038Z,2.60
2023-04-24T15:00:09.254Z,3.47
2023-04-24T15:02:40.777Z,2.70
2023-04-24T15:05:10.876Z,2.57
2023-04-24T15:07:39.029Z,2.70
2023-04-24T15:10:07.902Z,2.67
2023-04-24T15:12:35.758Z,2.40
2023-04-24T15:15:03.682Z,2.60
2023-04-24T15:17:32.826Z,2.60
2023-04-24T15:20:00.553Z,3.37
2023-04-24T15:22:29.639Z,2.30
2023-04-24T15:24:57.443Z,2.60
2023-04-24T15:27:40.940Z,2.70
2023-04-24T15:30:10.223Z,2.40
2023-04-24T15:32:38.101Z,2.60
2023-04-24T15:35:09.159Z,2.77
2023-04-24T15:37:39.895Z,2.30
2023-04-24T15:40:08.922Z,2.00
2023-04-24T15:42:36.895Z,2.50
2023-04-24T15:45:05.218Z,2.67
2023-04-24T15:47:33.974Z,2.33
2023-04-24T15:50:01.756Z,2.60
2023-04-24T15:52:29.474Z,2.20
2023-04-24T15:54:58.602Z,3.00
2023-04-24T15:57:27.027Z,2.03
2023-04-24T15:59:54.830Z,2.37
2023-04-24T16:02:22.714Z,2.83
2023-04-24T16:04:52.184Z,2.80
2023-04-24T16:07:19.973Z,3.00
2023-04-24T16:09:47.758Z,2.37
2023-04-24T16:12:17.475Z,2.67
2023-04-24T16:14:45.314Z,2.50
2023-04-24T16:17:13.081Z,2.80
2023-04-24T16:19:40.949Z,2.27
2023-04-24T16:22:09.793Z,2.90
2023-04-24T16:24:37.663Z,2.53
2023-04-24T16:27:05.571Z,2.27
2023-04-24T16:29:34.844Z,2.10
2023-04-24T16:32:02.530Z,2.10
2023-04-24T16:34:30.373Z,2.40
2023-04-24T16:36:58.368Z,2.57
2023-04-24T16:39:27.661Z,2.40
2023-04-24T16:41:56.793Z,1.67
2023-04-24T16:44:26.268Z,2.00
2023-04-24T16:46:55.669Z,2.00
2023-04-24T16:49:23.789Z,1.83
2023-04-24T16:51:51.836Z,1.73
2023-04-24T16:54:19.615Z,2.00
2023-04-24T16:56:47.309Z,2.20
2023-04-24T16:59:15.235Z,1.90
2023-04-24T17:01:43.068Z,1.93
2023-04-24T17:04:12.344Z,1.93
2023-04-24T17:06:40.190Z,1.67
2023-04-24T17:09:08.245Z,2.00
2023-04-24T17:11:36.354Z,1.93
2023-04-24T17:14:04.646Z,1.87
2023-04-24T17:16:32.517Z,2.20
2023-04-24T17:19:00.826Z,2.30
2023-04-24T17:21:29.950Z,1.90
2023-04-24T17:23:57.724Z,2.03
2023-04-24T17:26:25.534Z,2.10
2023-04-24T17:28:54.407Z,2.07
2023-04-24T17:31:23.357Z,1.80
2023-04-24T17:33:51.506Z,1.80
2023-04-24T17:36:19.325Z,1.83
2023-04-24T17:38:48.723Z,2.00
2023-04-24T17:41:17.120Z,1.70
2023-04-24T17:43:45.683Z,1.90
2023-04-24T17:46:14.000Z,2.10
2023-04-24T17:48:41.823Z,1.73
2023-04-24T17:51:09.585Z,2.08
2023-04-24T17:53:37.302Z,2.13
2023-04-24T17:56:07.034Z,1.90
2023-04-24T17:58:35.336Z,2.03
2023-04-24T18:01:03.611Z,2.10
2023-04-24T18:03:31.738Z,1.93
2023-04-24T18:05:59.568Z,1.67
2023-04-24T18:08:27.339Z,1.63
2023-04-24T18:10:55.100Z,1.77
2023-04-24T18:13:24.245Z,1.83
2023-04-24T18:15:52.056Z,1.80
2023-04-24T18:18:19.868Z,1.60
2023-04-24T18:20:47.775Z,1.87
2023-04-24T18:23:16.522Z,1.80
2023-04-24T18:25:44.380Z,1.83
2023-04-24T18:28:12.098Z,2.10
2023-04-24T18:30:41.386Z,1.83
2023-04-24T18:33:09.211Z,2.03
2023-04-24T18:35:37.055Z,2.27
2023-04-24T18:38:05.199Z,1.80
2023-04-24T18:40:33.029Z,2.00
2023-04-24T18:43:00.926Z,1.87
2023-04-24T18:45:28.701Z,2.30
2023-04-24T18:47:57.801Z,2.00
2023-04-24T18:50:27.600Z,1.97
2023-04-24T18:52:55.409Z,1.80
2023-04-24T18:55:23.352Z,1.80
2023-04-24T18:57:51.145Z,2.00
2023-04-24T19:00:19.958Z,2.47
2023-04-24T19:02:48.364Z,2.20
2023-04-24T19:05:22.056Z,2.33
2023-04-24T19:07:49.785Z,2.50
2023-04-24T19:10:17.802Z,1.93
2023-04-24T19:12:45.691Z,1.83
2023-04-24T19:15:13.599Z,1.93
2023-04-24T19:17:41.693Z,2.10
2023-04-24T19:20:09.928Z,2.10
2023-04-24T19:22:39.067Z,1.90
2023-04-24T19:25:07.510Z,2.17
2023-04-24T19:27:35.376Z,2.20
2023-04-24T19:30:03.393Z,2.00
2023-04-24T19:32:31.108Z,1.73
2023-04-24T19:34:58.907Z,2.07
2023-04-24T19:37:26.753Z,1.80
2023-04-24T19:39:55.827Z,2.00
2023-04-24T19:42:35.831Z,1.80
2023-04-24T19:45:12.236Z,2.07
2023-04-24T19:47:40.240Z,2.27
2023-04-24T19:50:09.316Z,2.10
2023-04-24T19:52:37.073Z,2.10
2023-04-24T19:55:06.946Z,2.43
2023-04-24T19:57:34.851Z,2.43
2023-04-24T20:00:02.720Z,2.30
2023-04-24T20:02:32.954Z,1.77
2023-04-24T20:05:01.112Z,2.03
2023-04-24T20:07:29.047Z,2.33
2023-04-24T20:09:56.800Z,2.40
2023-04-24T20:12:28.675Z,2.33
2023-04-24T20:14:56.575Z,2.00
2023-04-24T20:17:24.534Z,2.50
2023-04-24T20:19:52.350Z,2.30
2023-04-24T20:22:20.305Z,2.30
2023-04-24T20:24:48.210Z,2.37
2023-04-24T20:27:16.184Z,2.30
2023-04-24T20:29:45.325Z,2.10
2023-04-24T20:32:13.162Z,2.57
2023-04-24T20:34:40.917Z,2.10
2023-04-24T20:37:08.757Z,2.17
2023-04-24T20:39:36.998Z,3.27
2023-04-24T20:42:07.678Z,2.80
2023-04-24T20:44:35.609Z,2.93
2023-04-24T20:47:06.300Z,2.97
2023-04-24T20:49:34.153Z,2.90
2023-04-24T20:52:02.041Z,2.80
2023-04-24T20:54:29.762Z,2.70
2023-04-24T20:57:00.148Z,2.90
2023-04-24T20:59:28.609Z,2.43
2023-04-24T21:01:56.480Z,2.40
2023-04-24T21:04:26.216Z,2.80
2023-04-24T21:06:54.176Z,2.67
2023-04-24T21:09:21.996Z,2.80
2023-04-24T21:11:49.775Z,3.30
2023-04-24T21:14:17.945Z,2.50
2023-04-24T21:16:45.811Z,2.70
2023-04-24T21:19:13.521Z,2.93
2023-04-24T21:21:42.579Z,3.20
2023-04-24T21:24:13.402Z,2.93
2023-04-24T21:26:41.303Z,3.13
2023-04-24T21:29:09.032Z,3.50
2023-04-24T21:31:36.790Z,3.47
2023-04-24T21:34:04.624Z,3.40
2023-04-24T21:36:32.928Z,3.60
2023-04-24T21:39:02.052Z,3.07
2023-04-24T21:41:29.855Z,3.27
2023-04-24T21:43:57.705Z,3.33
2023-04-24T21:46:25.747Z,3.10
2023-04-24T21:48:53.496Z,3.30
2023-04-24T21:51:21.348Z,3.30
2023-04-24T21:53:49.367Z,3.97
2023-04-24T21:56:18.874Z,3.30
2023-04-24T21:58:47.316Z,3.07
2023-04-24T22:01:15.669Z,3.37
2023-04-24T22:03:46.880Z,3.30
2023-04-24T22:06:16.698Z,3.50
2023-04-24T22:08:47.521Z,3.03
2023-04-24T22:11:25.897Z,3.70
2023-04-24T22:13:56.134Z,4.03
2023-04-24T22:16:24.946Z,3.40
2023-04-24T22:18:55.146Z,3.30
2023-04-24T22:21:23.624Z,3.23
2023-04-24T22:23:51.709Z,3.67
2023-04-24T22:26:19.783Z,3.97
2023-04-24T22:28:48.480Z,3.50
2023-04-24T22:31:17.790Z,3.20
2023-04-24T22:33:47.294Z,3.47
2023-04-24T22:36:15.848Z,3.67
2023-04-24T22:38:43.496Z,3.67
2023-04-24T22:41:11.444Z,3.27
2023-04-24T22:43:39.551Z,4.10
2023-04-24T22:46:07.459Z,3.23
2023-04-24T22:48:36.635Z,4.07
2023-04-24T22:51:04.500Z,3.37
2023-04-24T22:53:32.289Z,3.57
2023-04-24T22:56:00.936Z,3.90
2023-04-24T22:58:29.310Z,4.10
2023-04-24T23:00:57.150Z,4.23
2023-04-24T23:03:25.668Z,3.83
2023-04-24T23:05:55.048Z,4.10
2023-04-24T23:08:22.797Z,4.30
2023-04-24T23:10:50.818Z,5.27
2023-04-24T23:13:18.920Z,4.37
2023-04-24T23:15:46.597Z,5.13
2023-04-24T23:18:14.380Z,4.43
2023-04-24T23:20:43.312Z,3.90
2023-04-24T23:23:12.681Z,4.47
2023-04-24T23:25:41.018Z,4.23
2023-04-24T23:28:08.788Z,4.40
2023-04-24T23:30:36.514Z,3.60
2023-04-24T23:33:04.881Z,4.53
2023-04-24T23:35:32.859Z,4.03
2023-04-24T23:38:00.800Z,4.07
2023-04-24T23:40:29.921Z,4.57
2023-04-24T23:43:06.334Z,4.43
2023-04-24T23:45:35.706Z,4.27
2023-04-24T23:48:04.078Z,4.30
2023-04-24T23:50:31.970Z,4.13
2023-04-24T23:52:59.910Z,4.23
2023-04-24T23:55:29.180Z,4.60
2023-04-24T23:57:56.914Z,4.40
